createdAt,value
2022-08-05T00:01:36.390Z,15.90
2022-08-05T00:04:19.104Z,15.90
2022-08-05T00:06:47.275Z,15.80
2022-08-05T00:09:19.481Z,15.90
2022-08-05T00:11:48.706Z,15.80
2022-08-05T00:14:18.025Z,15.80
2022-08-05T00:16:53.030Z,15.80
2022-08-05T00:19:23.442Z,15.80
2022-08-05T00:21:54.013Z,15.80
2022-08-05T00:24:24.868Z,15.80
2022-08-05T00:26:58.831Z,15.80
2022-08-05T00:29:27.584Z,15.70
2022-08-05T00:32:13.363Z,15.70
2022-08-05T00:35:05.197Z,15.60
2022-08-05T00:37:50.617Z,15.60
2022-08-05T00:40:26.991Z,15.70
2022-08-05T00:42:56.352Z,15.60
2022-08-05T00:45:38.380Z,15.60
2022-08-05T00:48:12.767Z,15.50
2022-08-05T00:50:44.170Z,15.50
2022-08-05T00:54:00.277Z,15.50
2022-08-05T00:56:07.858Z,15.50
2022-08-05T00:58:36.224Z,15.50
2022-08-05T01:01:08.588Z,15.40
2022-08-05T01:03:38.016Z,15.30
2022-08-05T01:06:05.951Z,15.30
2022-08-05T01:08:43.245Z,15.40
2022-08-05T01:11:37.081Z,15.30
2022-08-05T01:14:18.307Z,15.30
2022-08-05T01:17:07.371Z,15.30
2022-08-05T01:20:03.832Z,15.30
2022-08-05T01:22:51.654Z,15.20
2022-08-05T01:25:40.375Z,15.20
2022-08-05T01:28:14.567Z,15.10
2022-08-05T01:30:53.829Z,15.10
2022-08-05T01:33:26.462Z,15.10
2022-08-05T01:35:57.471Z,15.00
2022-08-05T01:38:29.857Z,15.00
2022-08-05T01:41:02.192Z,15.00
2022-08-05T01:43:32.167Z,15.00
2022-08-05T01:46:07.290Z,14.90
2022-08-05T01:48:49.742Z,14.90
2022-08-05T01:51:19.353Z,14.90
2022-08-05T01:53:57.134Z,14.90
2022-08-05T01:58:11.649Z,14.90
2022-08-05T01:59:22.126Z,14.80
2022-08-05T02:01:54.737Z,14.80
2022-08-05T02:04:26.852Z,14.80
2022-08-05T02:06:54.669Z,14.80
2022-08-05T02:09:23.066Z,14.80
2022-08-05T02:12:07.159Z,14.80
2022-08-05T02:14:49.445Z,14.80
2022-08-05T02:18:27.583Z,14.80
2022-08-05T02:20:20.586Z,14.80
2022-08-05T02:22:56.730Z,14.70
2022-08-05T02:25:33.144Z,14.70
2022-08-05T02:28:08.860Z,14.70
2022-08-05T02:30:54.820Z,14.70
2022-08-05T02:33:35.705Z,14.70
2022-08-05T02:36:05.472Z,14.70
2022-08-05T02:38:35.412Z,14.60
2022-08-05T02:41:06.331Z,14.60
2022-08-05T02:44:02.497Z,14.60
2022-08-05T02:46:33.695Z,14.60
2022-08-05T02:49:02.209Z,14.60
2022-08-05T02:52:03.876Z,14.60
2022-08-05T02:54:34.997Z,14.60
2022-08-05T02:57:09.781Z,14.60
2022-08-05T02:59:47.944Z,14.60
2022-08-05T03:02:21.331Z,14.50
2022-08-05T03:04:53.255Z,14.60
2022-08-05T03:07:56.568Z,14.60
2022-08-05T03:10:11.116Z,14.50
2022-08-05T03:12:41.444Z,14.50
2022-08-05T03:15:12.357Z,14.50
2022-08-05T03:17:40.332Z,14.50
2022-08-05T03:20:10.443Z,14.50
2022-08-05T03:22:38.081Z,14.50
2022-08-05T03:25:32.907Z,14.50
2022-08-05T03:28:03.495Z,14.50
2022-08-05T03:30:35.023Z,14.50
2022-08-05T03:33:04.306Z,14.50
2022-08-05T03:35:40.840Z,14.50
2022-08-05T03:38:12.102Z,14.50
2022-08-05T03:40:45.212Z,14.50
2022-08-05T03:44:08.202Z,14.50
2022-08-05T03:46:05.099Z,14.50
2022-08-05T03:48:36.748Z,14.50
2022-08-05T03:52:39.253Z,14.60
2022-08-05T03:55:54.776Z,14.50
2022-08-05T03:57:16.362Z,14.40
2022-08-05T03:59:56.035Z,14.40
2022-08-05T04:02:38.456Z,14.50
2022-08-05T04:05:10.263Z,14.60
2022-08-05T04:07:57.389Z,14.60
2022-08-05T04:10:31.990Z,14.60
2022-08-05T04:13:04.270Z,14.50
2022-08-05T04:15:35.901Z,14.60
2022-08-05T04:18:09.566Z,14.60
2022-08-05T04:20:41.240Z,14.60
2022-08-05T04:23:12.291Z,14.70
2022-08-05T04:25:57.231Z,14.70
2022-08-05T04:28:30.562Z,14.70
2022-08-05T04:31:01.110Z,14.80
2022-08-05T04:33:54.363Z,14.80
2022-08-05T04:36:46.144Z,14.80
2022-08-05T04:39:05.343Z,14.90
2022-08-05T04:41:37.251Z,14.90
2022-08-05T04:44:09.065Z,14.90
2022-08-05T04:46:38.960Z,14.90
2022-08-05T04:49:12.434Z,15.00
2022-08-05T04:51:44.480Z,15.00
2022-08-05T04:54:12.450Z,15.10
2022-08-05T04:56:40.321Z,15.10
2022-08-05T04:59:21.696Z,15.10
2022-08-05T05:02:07.254Z,15.20
2022-08-05T05:04:43.753Z,15.20
2022-08-05T05:07:16.077Z,15.30
2022-08-05T05:09:45.623Z,15.30
2022-08-05T05:12:13.422Z,15.40
2022-08-05T05:14:50.722Z,15.60
2022-08-05T05:17:23.751Z,15.70
2022-08-05T05:19:57.935Z,15.80
2022-08-05T05:22:27.604Z,15.80
2022-08-05T05:24:58.765Z,15.90
2022-08-05T05:27:44.866Z,15.90
2022-08-05T05:30:29.334Z,16.00
2022-08-05T05:33:00.702Z,16.10
2022-08-05T05:35:38.119Z,16.20
2022-08-05T05:38:09.354Z,16.30
2022-08-05T05:40:48.111Z,16.40
2022-08-05T05:43:28.167Z,16.60
2022-08-05T05:46:07.648Z,16.50
2022-08-05T05:48:42.224Z,16.70
2022-08-05T05:51:15.437Z,16.80
2022-08-05T05:53:57.635Z,16.90
2022-08-05T05:56:34.541Z,16.90
2022-08-05T05:59:05.439Z,17.00
2022-08-05T06:01:37.566Z,17.20
2022-08-05T06:04:11.753Z,17.20
2022-08-05T06:06:47.639Z,17.40
2022-08-05T06:09:25.934Z,17.40
2022-08-05T06:12:03.082Z,17.40
2022-08-05T06:14:31.769Z,17.50
2022-08-05T06:17:02.250Z,17.50
2022-08-05T06:19:56.882Z,17.60
2022-08-05T06:22:35.160Z,17.70
2022-08-05T06:25:24.332Z,17.80
2022-08-05T06:28:11.315Z,17.80
2022-08-05T06:30:40.086Z,17.80
2022-08-05T06:33:09.876Z,17.90
2022-08-05T06:36:03.059Z,18.00
2022-08-05T06:38:35.786Z,18.10
2022-08-05T06:41:07.657Z,18.10
2022-08-05T06:43:58.092Z,18.30
2022-08-05T06:46:30.213Z,18.30
2022-08-05T06:48:59.897Z,18.40
2022-08-05T06:51:30.691Z,18.40
2022-08-05T06:54:03.579Z,18.50
2022-08-05T06:56:33.867Z,18.80
2022-08-05T06:59:09.533Z,18.70
2022-08-05T07:01:40.468Z,18.80
2022-08-05T07:04:08.584Z,18.80
2022-08-05T07:06:36.185Z,19.00
2022-08-05T07:09:05.247Z,19.00
2022-08-05T07:11:36.970Z,19.00
2022-08-05T07:14:29.995Z,19.20
2022-08-05T07:18:00.226Z,19.30
2022-08-05T07:22:42.343Z,19.60
2022-08-05T07:25:54.404Z,19.70
2022-08-05T07:28:03.800Z,19.80
2022-08-05T07:30:39.059Z,19.80
2022-08-05T07:33:15.738Z,19.90
2022-08-05T07:36:02.515Z,19.90
2022-08-05T07:38:43.242Z,20.00
2022-08-05T07:42:13.860Z,20.10
2022-08-05T07:44:14.353Z,20.10
2022-08-05T07:46:49.623Z,20.40
2022-08-05T07:49:18.643Z,20.50
2022-08-05T07:51:53.050Z,20.60
2022-08-05T07:54:31.043Z,20.50
2022-08-05T07:57:22.882Z,20.80
2022-08-05T07:59:51.114Z,20.60
2022-08-05T08:02:18.651Z,20.90
2022-08-05T08:04:48.675Z,21.20
2022-08-05T08:07:18.386Z,21.30
2022-08-05T08:09:52.444Z,21.30
2022-08-05T08:12:27.321Z,21.30
2022-08-05T08:15:02.580Z,21.40
2022-08-05T08:17:32.890Z,21.40
2022-08-05T08:20:43.531Z,21.60
2022-08-05T08:22:56.292Z,21.60
2022-08-05T08:25:26.555Z,21.50
2022-08-05T08:28:03.986Z,21.60
2022-08-05T08:30:40.899Z,21.70
2022-08-05T08:33:15.225Z,21.80
2022-08-05T08:35:52.400Z,22.00
2022-08-05T08:38:32.081Z,22.00
2022-08-05T08:41:10.418Z,22.10
2022-08-05T08:45:24.143Z,22.20
2022-08-05T08:46:32.933Z,22.20
2022-08-05T08:50:04.021Z,22.20
2022-08-05T08:52:13.177Z,22.50
2022-08-05T08:54:42.124Z,22.40
2022-08-05T08:57:13.520Z,22.40
2022-08-05T08:59:47.190Z,22.40
2022-08-05T09:02:19.492Z,22.50
2022-08-05T09:05:16.899Z,22.50
2022-08-05T09:07:39.889Z,22.60
2022-08-05T09:10:27.032Z,22.70
2022-08-05T09:12:56.196Z,22.70
2022-08-05T09:15:24.510Z,22.70
2022-08-05T09:17:53.169Z,22.80
2022-08-05T09:20:37.353Z,22.90
2022-08-05T09:23:19.057Z,23.10
2022-08-05T09:26:09.837Z,23.10
2022-08-05T09:28:39.183Z,23.30
2022-08-05T09:32:39.341Z,23.50
2022-08-05T09:34:01.456Z,23.70
2022-08-05T09:36:56.439Z,23.90
2022-08-05T09:39:41.601Z,23.60
2022-08-05T09:42:24.426Z,23.80
2022-08-05T09:45:17.923Z,23.80
2022-08-05T09:47:55.431Z,23.90
2022-08-05T09:50:44.403Z,24.10
2022-08-05T09:53:23.119Z,24.10
2022-08-05T09:56:04.777Z,24.00
2022-08-05T09:58:32.779Z,24.10
2022-08-05T10:01:14.774Z,24.40
2022-08-05T10:04:00.436Z,24.20
2022-08-05T10:06:28.763Z,24.30
2022-08-05T10:09:09.669Z,24.50
2022-08-05T10:11:52.864Z,24.40
2022-08-05T10:14:32.136Z,24.40
2022-08-05T10:17:37.967Z,24.60
2022-08-05T10:20:10.127Z,24.70
2022-08-05T10:22:42.891Z,24.70
2022-08-05T10:25:16.568Z,24.60
2022-08-05T10:28:09.298Z,24.60
2022-08-05T10:31:20.185Z,24.40
2022-08-05T10:33:23.654Z,24.60
2022-08-05T10:35:52.652Z,24.80
2022-08-05T10:38:33.263Z,24.90
2022-08-05T10:41:23.451Z,25.20
2022-08-05T10:44:10.143Z,25.30
2022-08-05T10:46:54.929Z,25.10
2022-08-05T10:49:32.868Z,25.20
2022-08-05T10:52:05.540Z,25.20
2022-08-05T10:55:05.764Z,25.20
2022-08-05T10:57:34.136Z,25.30
2022-08-05T11:00:20.748Z,25.30
2022-08-05T11:03:25.950Z,25.30
2022-08-05T11:06:15.631Z,25.40
2022-08-05T11:09:32.308Z,25.60
2022-08-05T11:12:54.378Z,25.60
2022-08-05T11:16:00.011Z,25.60
2022-08-05T11:18:35.048Z,25.70
2022-08-05T11:21:11.388Z,26.00
2022-08-05T11:24:04.139Z,26.10
2022-08-05T11:26:39.557Z,25.90
2022-08-05T11:29:35.213Z,25.80
2022-08-05T11:32:28.571Z,26.00
2022-08-05T11:34:57.794Z,26.20
2022-08-05T11:38:37.211Z,26.40
2022-08-05T11:41:01.048Z,26.40
2022-08-05T11:43:58.430Z,26.50
2022-08-05T11:46:33.553Z,26.60
2022-08-05T11:49:04.040Z,26.40
2022-08-05T11:51:44.616Z,26.20
2022-08-05T11:54:33.322Z,26.30
2022-08-05T11:57:08.458Z,26.50
2022-08-05T11:59:52.174Z,26.70
2022-08-05T12:02:30.181Z,26.70
2022-08-05T12:05:07.513Z,26.60
2022-08-05T12:08:03.806Z,26.80
2022-08-05T12:10:43.288Z,26.90
2022-08-05T12:13:28.103Z,27.10
2022-08-05T12:16:14.170Z,27.00
2022-08-05T12:18:52.201Z,26.90
2022-08-05T12:21:30.688Z,27.00
2022-08-05T12:24:06.728Z,27.20
2022-08-05T12:26:39.718Z,27.30
2022-08-05T12:29:26.404Z,27.40
2022-08-05T12:32:02.139Z,27.40
2022-08-05T12:34:35.735Z,27.30
2022-08-05T12:37:16.928Z,27.40
2022-08-05T12:39:53.928Z,27.50
2022-08-05T12:42:25.288Z,27.70
2022-08-05T12:44:53.118Z,27.70
2022-08-05T12:47:31.160Z,27.60
2022-08-05T12:50:04.854Z,27.60
2022-08-05T12:52:38.823Z,27.70
2022-08-05T12:55:32.642Z,27.40
2022-08-05T12:58:50.506Z,27.30
2022-08-05T13:02:02.674Z,27.30
2022-08-05T13:03:42.251Z,27.10
2022-08-05T13:06:16.925Z,27.10
2022-08-05T13:08:52.010Z,27.40
2022-08-05T13:11:59.869Z,27.50
2022-08-05T13:14:24.660Z,27.60
2022-08-05T13:17:09.977Z,27.70
2022-08-05T13:19:51.691Z,27.70
2022-08-05T13:22:29.379Z,27.70
2022-08-05T13:25:19.456Z,27.80
2022-08-05T13:27:51.517Z,27.90
2022-08-05T13:30:34.598Z,28.00
2022-08-05T13:33:03.231Z,27.90
2022-08-05T13:35:47.149Z,27.90
2022-08-05T13:38:30.529Z,28.00
2022-08-05T13:41:00.807Z,27.90
2022-08-05T13:43:44.956Z,27.70
2022-08-05T13:46:16.533Z,27.60
2022-08-05T13:49:03.959Z,27.60
2022-08-05T13:51:40.673Z,27.60
2022-08-05T13:54:15.089Z,27.60
2022-08-05T13:56:45.443Z,27.70
2022-08-05T13:59:24.885Z,27.90
2022-08-05T14:01:58.755Z,28.10
2022-08-05T14:04:51.721Z,28.10
2022-08-05T14:07:57.041Z,28.10
2022-08-05T14:10:30.864Z,28.20
2022-08-05T14:12:59.919Z,28.30
2022-08-05T14:16:07.634Z,28.30
2022-08-05T14:18:18.135Z,28.10
2022-08-05T14:20:54.429Z,28.20
2022-08-05T14:23:25.592Z,28.20
2022-08-05T14:25:58.391Z,28.30
2022-08-05T14:28:30.841Z,28.40
2022-08-05T14:31:01.915Z,28.40
2022-08-05T14:33:56.507Z,28.40
2022-08-05T14:36:21.313Z,28.40
2022-08-05T14:38:50.457Z,28.50
2022-08-05T14:41:18.711Z,28.60
2022-08-05T14:44:02.319Z,28.70
2022-08-05T14:46:35.308Z,28.70
2022-08-05T14:49:07.559Z,28.70
2022-08-05T14:51:42.885Z,28.70
2022-08-05T14:54:28.681Z,28.70
2022-08-05T14:56:58.765Z,28.70
2022-08-05T14:59:29.695Z,28.70
2022-08-05T15:02:15.727Z,28.70
2022-08-05T15:04:44.936Z,28.70
2022-08-05T15:08:06.114Z,28.70
2022-08-05T15:10:03.331Z,28.80
2022-08-05T15:12:41.063Z,28.70
2022-08-05T15:15:18.486Z,28.60
2022-08-05T15:18:06.384Z,28.60
2022-08-05T15:20:34.106Z,28.70
2022-08-05T15:23:10.256Z,28.60
2022-08-05T15:25:51.996Z,28.70
2022-08-05T15:28:27.221Z,28.70
2022-08-05T15:30:56.812Z,28.70
2022-08-05T15:34:18.523Z,28.80
2022-08-05T15:36:25.749Z,28.80
2022-08-05T15:40:40.902Z,28.80
2022-08-05T15:41:58.299Z,28.60
2022-08-05T15:44:28.353Z,28.40
2022-08-05T15:46:59.564Z,28.30
2022-08-05T15:49:53.370Z,28.20
2022-08-05T15:52:17.108Z,28.20
2022-08-05T15:54:57.349Z,28.10
2022-08-05T15:57:53.386Z,28.00
2022-08-05T16:00:26.051Z,27.80
2022-08-05T16:03:53.096Z,27.80
2022-08-05T16:06:22.821Z,27.80
2022-08-05T16:08:53.564Z,27.70
2022-08-05T16:11:43.123Z,27.70
2022-08-05T16:14:17.404Z,27.60
2022-08-05T16:16:46.234Z,27.50
2022-08-05T16:19:25.651Z,27.40
2022-08-05T16:22:02.988Z,27.30
2022-08-05T16:24:41.348Z,27.30
2022-08-05T16:27:19.046Z,27.20
2022-08-05T16:29:50.856Z,27.10
2022-08-05T16:32:28.813Z,27.00
2022-08-05T16:34:58.676Z,27.00
2022-08-05T16:38:15.745Z,26.90
2022-08-05T16:40:24.781Z,26.90
2022-08-05T16:42:56.633Z,26.90
2022-08-05T16:46:05.136Z,26.90
2022-08-05T16:48:11.781Z,26.80
2022-08-05T16:50:53.617Z,26.70
2022-08-05T16:53:23.269Z,26.60
2022-08-05T16:55:59.687Z,26.60
2022-08-05T16:58:27.276Z,26.60
2022-08-05T17:00:54.929Z,26.60
2022-08-05T17:03:22.588Z,26.50
2022-08-05T17:05:53.838Z,26.40
2022-08-05T17:08:36.265Z,26.40
2022-08-05T17:11:12.675Z,26.40
2022-08-05T17:13:45.680Z,26.30
2022-08-05T17:16:29.819Z,26.20
2022-08-05T17:19:01.814Z,26.10
2022-08-05T17:21:36.294Z,26.10
2022-08-05T17:24:19.717Z,26.00
2022-08-05T17:26:55.301Z,26.00
2022-08-05T17:29:33.731Z,25.90
2022-08-05T17:32:11.714Z,25.80
2022-08-05T17:34:48.468Z,25.70
2022-08-05T17:37:39.587Z,25.60
2022-08-05T17:40:12.397Z,25.60
2022-08-05T17:42:43.175Z,25.50
2022-08-05T17:45:21.818Z,25.40
2022-08-05T17:47:56.194Z,25.30
2022-08-05T17:50:30.500Z,25.30
2022-08-05T17:53:00.273Z,25.20
2022-08-05T17:55:34.387Z,25.20
2022-08-05T17:58:12.628Z,25.10
2022-08-05T18:00:47.016Z,25.00
2022-08-05T18:03:59.596Z,24.90
2022-08-05T18:06:11.853Z,24.90
2022-08-05T18:08:45.760Z,24.80
2022-08-05T18:11:24.368Z,24.80
2022-08-05T18:14:06.674Z,24.70
2022-08-05T18:16:51.028Z,24.70
2022-08-05T18:19:22.792Z,24.60
2022-08-05T18:22:09.592Z,24.60
2022-08-05T18:24:39.854Z,24.60
2022-08-05T18:27:12.464Z,24.50
2022-08-05T18:29:53.732Z,24.50
2022-08-05T18:32:28.332Z,24.40
2022-08-05T18:34:58.116Z,24.40
2022-08-05T18:37:34.441Z,24.30
2022-08-05T18:40:57.663Z,24.20
2022-08-05T18:42:58.039Z,24.20
2022-08-05T18:45:25.862Z,24.10
2022-08-05T18:48:11.120Z,24.10
2022-08-05T18:50:57.547Z,24.10
2022-08-05T18:53:45.699Z,24.10
2022-08-05T18:56:21.904Z,24.00
2022-08-05T18:58:55.014Z,23.90
2022-08-05T19:01:33.266Z,23.90
2022-08-05T19:04:14.928Z,23.90
2022-08-05T19:06:53.706Z,23.80
2022-08-05T19:09:21.574Z,23.80
2022-08-05T19:12:00.457Z,23.80
2022-08-05T19:14:37.707Z,23.80
2022-08-05T19:17:18.024Z,23.70
2022-08-05T19:19:48.629Z,23.70
2022-08-05T19:22:17.150Z,23.60
2022-08-05T19:24:55.842Z,23.60
2022-08-05T19:27:30.255Z,23.60
2022-08-05T19:29:58.664Z,23.60
2022-08-05T19:32:27.775Z,23.50
2022-08-05T19:34:56.995Z,23.50
2022-08-05T19:37:29.761Z,23.50
2022-08-05T19:40:15.059Z,23.50
2022-08-05T19:42:42.951Z,23.40
2022-08-05T19:45:30.593Z,23.40
2022-08-05T19:48:06.468Z,23.40
2022-08-05T19:50:35.212Z,23.40
2022-08-05T19:53:09.590Z,23.30
2022-08-05T19:56:14.993Z,23.30
2022-08-05T19:58:29.120Z,23.20
2022-08-05T20:00:57.766Z,23.20
2022-08-05T20:03:26.099Z,23.20
2022-08-05T20:05:56.823Z,23.10
2022-08-05T20:08:25.606Z,23.10
2022-08-05T20:10:54.254Z,23.10
2022-08-05T20:13:30.054Z,23.00
2022-08-05T20:16:10.367Z,22.90
2022-08-05T20:18:38.487Z,23.00
2022-08-05T20:21:07.480Z,22.90
2022-08-05T20:23:39.398Z,22.90
2022-08-05T20:26:20.935Z,22.80
2022-08-05T20:28:50.959Z,22.80
2022-08-05T20:31:21.893Z,22.80
2022-08-05T20:33:56.484Z,22.70
2022-08-05T20:36:24.736Z,22.70
2022-08-05T20:38:57.982Z,22.60
2022-08-05T20:41:43.245Z,22.60
2022-08-05T20:44:18.743Z,22.60
2022-08-05T20:47:01.622Z,22.60
2022-08-05T20:49:33.246Z,22.60
2022-08-05T20:52:08.791Z,22.60
2022-08-05T20:54:55.259Z,22.50
2022-08-05T20:57:43.053Z,22.50
2022-08-05T21:00:40.235Z,22.50
2022-08-05T21:03:07.304Z,22.50
2022-08-05T21:05:41.955Z,22.40
2022-08-05T21:08:26.490Z,22.40
2022-08-05T21:11:00.958Z,22.30
2022-08-05T21:13:56.410Z,22.30
2022-08-05T21:16:29.556Z,22.30
2022-08-05T21:19:01.976Z,22.30
2022-08-05T21:21:39.750Z,22.20
2022-08-05T21:24:15.270Z,22.20
2022-08-05T21:26:53.659Z,22.20
2022-08-05T21:29:32.007Z,22.20
2022-08-05T21:32:01.584Z,22.20
2022-08-05T21:34:31.755Z,22.10
2022-08-05T21:37:01.094Z,22.00
2022-08-05T21:39:29.603Z,22.10
2022-08-05T21:42:01.984Z,22.00
2022-08-05T21:44:31.193Z,22.00
2022-08-05T21:46:59.747Z,22.00
2022-08-05T21:49:58.771Z,22.00
2022-08-05T21:52:27.300Z,22.00
2022-08-05T21:54:57.867Z,22.00
2022-08-05T21:57:42.398Z,21.90
2022-08-05T22:00:13.179Z,21.90
2022-08-05T22:02:42.768Z,21.90
2022-08-05T22:05:12.433Z,21.80
2022-08-05T22:07:58.667Z,21.80
2022-08-05T22:10:27.711Z,21.80
2022-08-05T22:12:58.837Z,21.70
2022-08-05T22:16:01.171Z,21.70
2022-08-05T22:18:25.662Z,21.70
2022-08-05T22:20:54.063Z,21.70
2022-08-05T22:24:02.509Z,21.70
2022-08-05T22:26:49.650Z,21.70
2022-08-05T22:29:18.845Z,21.60
2022-08-05T22:31:55.376Z,21.60
2022-08-05T22:34:28.808Z,21.60
2022-08-05T22:36:58.725Z,21.60
2022-08-05T22:39:32.972Z,21.60
2022-08-05T22:42:12.221Z,21.60
2022-08-05T22:44:53.823Z,21.60
2022-08-05T22:47:29.060Z,21.60
2022-08-05T22:50:20.484Z,21.60
2022-08-05T22:52:49.144Z,21.60
2022-08-05T22:55:18.667Z,21.60
2022-08-05T22:57:51.643Z,21.60
2022-08-05T23:00:21.767Z,21.60
2022-08-05T23:02:51.048Z,21.50
2022-08-05T23:05:19.331Z,21.50
2022-08-05T23:07:51.447Z,21.50
2022-08-05T23:10:23.709Z,21.40
2022-08-05T23:12:54.379Z,21.40
2022-08-05T23:15:29.313Z,21.40
2022-08-05T23:18:02.182Z,21.30
2022-08-05T23:20:37.381Z,21.30
2022-08-05T23:23:08.332Z,21.30
2022-08-05T23:25:52.713Z,21.30
2022-08-05T23:28:27.665Z,21.20
2022-08-05T23:31:15.942Z,21.20
2022-08-05T23:34:03.782Z,21.20
2022-08-05T23:36:39.544Z,21.20
2022-08-05T23:39:16.605Z,21.20
2022-08-05T23:41:51.782Z,21.20
2022-08-05T23:44:19.803Z,21.20
2022-08-05T23:46:52.786Z,21.20
2022-08-05T23:49:23.770Z,21.10
2022-08-05T23:52:25.623Z,21.10
2022-08-05T23:54:55.057Z,21.00
2022-08-05T23:57:24.045Z,21.00
